createdAt,value
2022-09-07T00:01:31.620Z,100165.66
2022-09-07T00:04:01.073Z,100171.06
2022-09-07T00:06:29.512Z,100158.88
2022-09-07T00:08:58.509Z,100151.56
2022-09-07T00:11:26.549Z,100151.44
2022-09-07T00:13:55.049Z,100149.44
2022-09-07T00:16:28.884Z,100145.72
2022-09-07T00:18:59.590Z,100151.53
2022-09-07T00:21:33.789Z,100150.38
2022-09-07T00:24:02.139Z,100152.84
2022-09-07T00:26:31.621Z,100153.88
2022-09-07T00:29:02.797Z,100153.88
2022-09-07T00:31:32.250Z,100159.19
2022-09-07T00:34:02.247Z,100185.94
2022-09-07T00:36:31.598Z,100227.75
2022-09-07T00:38:59.564Z,100255.13
2022-09-07T00:41:27.591Z,100278.59
2022-09-07T00:43:58.765Z,100303.03
2022-09-07T00:46:29.908Z,100315.25
2022-09-07T00:49:08.132Z,100322.66
2022-09-07T00:51:46.094Z,100353.25
2022-09-07T00:54:20.493Z,100343.31
2022-09-07T00:56:52.882Z,100332.94
2022-09-07T00:59:27.292Z,100339.13
2022-09-07T01:01:56.197Z,100333.84
2022-09-07T01:04:25.857Z,100321.59
2022-09-07T01:06:56.729Z,100319.66
2022-09-07T01:09:28.765Z,100326.84
2022-09-07T01:11:59.992Z,100331.50
2022-09-07T01:14:33.329Z,100337.06
2022-09-07T01:17:15.588Z,100342.59
2022-09-07T01:20:42.102Z,100351.50
2022-09-07T01:23:51.918Z,100361.28
2022-09-07T01:27:01.717Z,100356.13
2022-09-07T01:29:45.972Z,100366.78
2022-09-07T01:32:42.210Z,100363.25
2022-09-07T01:35:22.003Z,100353.88
2022-09-07T01:38:02.291Z,100353.91
2022-09-07T01:40:43.064Z,100349.63
2022-09-07T01:43:19.792Z,100347.91
2022-09-07T01:45:57.034Z,100364.78
2022-09-07T01:48:27.186Z,100372.88
2022-09-07T01:51:02.597Z,100371.00
2022-09-07T01:53:41.540Z,100362.16
2022-09-07T01:56:16.737Z,100348.06
2022-09-07T01:58:52.458Z,100356.88
2022-09-07T02:01:34.529Z,100350.66
2022-09-07T02:04:12.005Z,100358.53
2022-09-07T02:06:47.095Z,100350.66
2022-09-07T02:09:27.990Z,100346.31
2022-09-07T02:12:02.948Z,100346.41
2022-09-07T02:14:38.143Z,100335.78
2022-09-07T02:17:13.538Z,100332.28
2022-09-07T02:19:52.767Z,100331.44
2022-09-07T02:22:32.089Z,100325.28
2022-09-07T02:25:06.303Z,100320.91
2022-09-07T02:27:41.558Z,100313.19
2022-09-07T02:30:10.353Z,100312.50
2022-09-07T02:32:40.830Z,100317.00
2022-09-07T02:35:11.314Z,100322.31
2022-09-07T02:37:42.652Z,100320.56
2022-09-07T02:40:12.729Z,100306.50
2022-09-07T02:42:42.763Z,100292.50
2022-09-07T02:45:15.441Z,100290.78
2022-09-07T02:48:06.385Z,100271.56
2022-09-07T02:51:00.570Z,100269.03
2022-09-07T02:53:52.701Z,100258.66
2022-09-07T02:56:44.314Z,100259.56
2022-09-07T02:59:27.256Z,100251.66
2022-09-07T03:02:06.106Z,100245.53
2022-09-07T03:04:46.657Z,100232.47
2022-09-07T03:07:21.272Z,100228.91
2022-09-07T03:09:54.930Z,100220.97
2022-09-07T03:12:22.922Z,100221.13
2022-09-07T03:14:53.086Z,100224.56
2022-09-07T03:17:21.181Z,100220.94
2022-09-07T03:19:50.446Z,100234.06
2022-09-07T03:22:19.502Z,100231.38
2022-09-07T03:24:48.362Z,100224.31
2022-09-07T03:27:16.822Z,100217.28
2022-09-07T03:29:46.864Z,100217.22
2022-09-07T03:32:15.243Z,100225.09
2022-09-07T03:34:43.246Z,100227.00
2022-09-07T03:37:12.560Z,100229.72
2022-09-07T03:39:40.806Z,100224.50
2022-09-07T03:42:08.918Z,100221.09
2022-09-07T03:44:36.865Z,100218.59
2022-09-07T03:47:06.510Z,100219.72
2022-09-07T03:49:34.985Z,100227.66
2022-09-07T03:52:04.542Z,100225.88
2022-09-07T03:54:37.753Z,100229.41
2022-09-07T03:57:08.257Z,100241.03
2022-09-07T03:59:39.468Z,100244.69
2022-09-07T04:02:07.607Z,100236.81
2022-09-07T04:08:07.105Z,100232.50
2022-09-07T04:10:39.526Z,100246.53
2022-09-07T04:13:08.351Z,100232.50
2022-09-07T04:15:37.169Z,100236.00
2022-09-07T04:18:05.192Z,100234.25
2022-09-07T04:20:33.615Z,100241.31
2022-09-07T04:23:01.530Z,100235.22
2022-09-07T04:25:30.219Z,100232.59
2022-09-07T04:28:00.393Z,100236.09
2022-09-07T04:30:28.547Z,100229.09
2022-09-07T04:32:56.625Z,100233.53
2022-09-07T04:35:24.709Z,100232.66
2022-09-07T04:37:52.709Z,100228.28
2022-09-07T04:40:22.093Z,100230.94
2022-09-07T04:42:51.129Z,100225.75
2022-09-07T04:45:22.117Z,100219.63
2022-09-07T04:47:50.862Z,100222.28
2022-09-07T04:50:19.357Z,100226.72
2022-09-07T04:52:49.111Z,100232.00
2022-09-07T04:55:17.395Z,100232.88
2022-09-07T04:57:45.389Z,100230.28
2022-09-07T05:00:14.734Z,100236.44
2022-09-07T05:02:45.269Z,100240.03
2022-09-07T05:05:13.730Z,100245.34
2022-09-07T05:07:43.001Z,100254.16
2022-09-07T05:10:12.157Z,100252.34
2022-09-07T05:12:40.365Z,100252.38
2022-09-07T05:15:13.623Z,100248.84
2022-09-07T05:17:42.905Z,100248.88
2022-09-07T05:20:10.973Z,100249.69
2022-09-07T05:22:41.086Z,100248.81
2022-09-07T05:25:10.777Z,100239.16
2022-09-07T05:27:40.134Z,100250.50
2022-09-07T05:33:05.155Z,100261.91
2022-09-07T05:35:33.117Z,100260.09
2022-09-07T05:38:02.441Z,100257.53
2022-09-07T05:40:36.176Z,100257.66
2022-09-07T05:43:06.448Z,100252.41
2022-09-07T05:45:37.377Z,100252.41
2022-09-07T05:48:07.725Z,100243.59
2022-09-07T05:50:35.934Z,100243.53
2022-09-07T05:53:05.033Z,100248.59
2022-09-07T05:55:33.521Z,100258.09
2022-09-07T05:58:04.054Z,100262.25
2022-09-07T06:00:32.017Z,100264.75
2022-09-07T06:03:00.176Z,100263.75
2022-09-07T06:05:33.564Z,100260.13
2022-09-07T06:08:01.766Z,100260.00
2022-09-07T06:10:49.945Z,100261.66
2022-09-07T06:13:18.017Z,100259.69
2022-09-07T06:15:46.088Z,100254.28
2022-09-07T06:18:15.048Z,100260.34
2022-09-07T06:20:44.384Z,100269.00
2022-09-07T06:23:12.317Z,100273.28
2022-09-07T06:25:50.202Z,100271.41
2022-09-07T06:28:18.247Z,100273.91
2022-09-07T06:30:46.595Z,100274.53
2022-09-07T06:33:18.085Z,100264.81
2022-09-07T06:35:57.743Z,100273.41
2022-09-07T06:38:31.860Z,100268.88
2022-09-07T06:43:53.596Z,100274.50
2022-09-07T06:49:10.927Z,100283.72
2022-09-07T06:51:40.297Z,100285.28
2022-09-07T06:56:57.649Z,100275.13
2022-09-07T06:59:25.670Z,100275.97
2022-09-07T07:01:53.624Z,100278.34
2022-09-07T07:04:21.964Z,100282.44
2022-09-07T07:06:51.933Z,100278.72
2022-09-07T07:09:19.898Z,100282.03
2022-09-07T07:11:48.240Z,100278.56
2022-09-07T07:14:17.864Z,100281.97
2022-09-07T07:16:46.804Z,100283.66
2022-09-07T07:19:15.861Z,100278.13
2022-09-07T07:22:07.749Z,100278.38
2022-09-07T07:24:33.397Z,100274.81
2022-09-07T07:27:03.422Z,100280.88
2022-09-07T07:29:31.716Z,100277.06
2022-09-07T07:32:00.731Z,100281.22
2022-09-07T07:34:29.845Z,100283.69
2022-09-07T07:36:58.036Z,100286.84
2022-09-07T07:42:16.038Z,100295.66
2022-09-07T07:44:44.057Z,100276.84
2022-09-07T07:47:12.446Z,100280.38
2022-09-07T07:49:40.300Z,100289.69
2022-09-07T07:54:56.492Z,100293.97
2022-09-07T07:57:26.380Z,100298.25
2022-09-07T07:59:55.871Z,100306.16
2022-09-07T08:02:24.097Z,100310.00
2022-09-07T08:04:52.922Z,100316.03
2022-09-07T08:07:22.348Z,100321.91
2022-09-07T08:09:50.943Z,100316.06
2022-09-07T08:12:20.497Z,100314.44
2022-09-07T08:14:49.887Z,100325.47
2022-09-07T08:17:18.305Z,100315.28
2022-09-07T08:19:46.211Z,100322.63
2022-09-07T08:22:14.108Z,100330.69
2022-09-07T08:24:43.429Z,100330.41
2022-09-07T08:27:11.322Z,100332.94
2022-09-07T08:29:39.112Z,100333.66
2022-09-07T08:32:08.350Z,100331.88
2022-09-07T08:34:38.291Z,100334.78
2022-09-07T08:37:06.247Z,100333.34
2022-09-07T08:39:36.694Z,100339.66
2022-09-07T08:42:34.312Z,100340.44
2022-09-07T08:45:09.472Z,100347.38
2022-09-07T08:47:46.789Z,100339.16
2022-09-07T08:50:21.947Z,100353.81
2022-09-07T08:52:56.339Z,100352.28
2022-09-07T08:55:31.181Z,100350.28
2022-09-07T08:58:26.690Z,100355.81
2022-09-07T09:06:53.464Z,100351.16
2022-09-07T09:09:40.817Z,100354.69
2022-09-07T09:12:26.732Z,100346.66
2022-09-07T09:15:15.715Z,100340.88
2022-09-07T09:17:54.763Z,100339.16
2022-09-07T09:20:31.645Z,100344.97
2022-09-07T09:23:10.795Z,100349.88
2022-09-07T09:25:45.756Z,100349.25
2022-09-07T09:28:13.633Z,100353.25
2022-09-07T09:30:42.259Z,100356.38
2022-09-07T09:33:18.765Z,100358.50
2022-09-07T09:35:51.534Z,100365.31
2022-09-07T09:38:39.888Z,100363.88
2022-09-07T09:41:11.257Z,100361.19
2022-09-07T09:43:48.246Z,100359.28
2022-09-07T09:46:24.627Z,100356.22
2022-09-07T09:48:57.181Z,100356.75
2022-09-07T09:54:27.111Z,100364.66
2022-09-07T09:56:55.145Z,100373.25
2022-09-07T10:05:30.467Z,100355.47
2022-09-07T10:08:02.591Z,100343.44
2022-09-07T10:10:31.511Z,100338.38
2022-09-07T10:12:59.922Z,100353.22
2022-09-07T10:15:40.129Z,100334.56
2022-09-07T10:18:22.486Z,100322.19
2022-09-07T10:20:50.376Z,100313.84
2022-09-07T10:23:25.300Z,100316.81
2022-09-07T10:25:53.429Z,100318.31
2022-09-07T10:28:24.497Z,100318.50
2022-09-07T10:31:15.829Z,100315.47
2022-09-07T10:37:01.784Z,100316.72
2022-09-07T10:39:37.113Z,100304.44
2022-09-07T10:42:24.735Z,100298.00
2022-09-07T10:45:12.335Z,100306.28
2022-09-07T10:47:59.326Z,100326.94
2022-09-07T10:50:32.415Z,100332.16
2022-09-07T10:53:42.099Z,100327.47
2022-09-07T10:56:21.038Z,100336.41
2022-09-07T10:59:10.767Z,100334.94
2022-09-07T11:01:59.963Z,100345.94
2022-09-07T11:04:47.550Z,100340.81
2022-09-07T11:07:48.540Z,100343.81
2022-09-07T11:10:35.578Z,100340.19
2022-09-07T11:13:10.383Z,100334.31
2022-09-07T11:15:44.800Z,100334.47
2022-09-07T11:18:20.256Z,100340.53
2022-09-07T11:20:55.378Z,100340.44
2022-09-07T11:23:40.374Z,100340.94
2022-09-07T11:26:19.561Z,100337.06
2022-09-07T11:31:49.026Z,100330.28
2022-09-07T11:34:24.651Z,100338.81
2022-09-07T11:37:00.978Z,100332.50
2022-09-07T11:39:35.834Z,100344.59
2022-09-07T11:45:15.244Z,100347.50
2022-09-07T11:47:50.893Z,100344.69
2022-09-07T11:50:23.705Z,100346.63
2022-09-07T11:52:57.832Z,100349.97
2022-09-07T11:55:29.643Z,100348.22
2022-09-07T11:58:30.261Z,100337.59
2022-09-07T12:01:21.234Z,100339.66
2022-09-07T12:04:16.600Z,100333.69
2022-09-07T12:07:21.987Z,100330.53
2022-09-07T12:10:14.468Z,100329.38
2022-09-07T12:13:07.963Z,100325.22
2022-09-07T12:15:53.018Z,100321.25
2022-09-07T12:19:01.859Z,100323.66
2022-09-07T12:21:42.392Z,100327.59
2022-09-07T12:24:43.857Z,100320.06
2022-09-07T12:27:39.696Z,100317.25
2022-09-07T12:30:59.660Z,100316.28
2022-09-07T12:33:33.304Z,100316.16
2022-09-07T12:36:22.721Z,100316.75
2022-09-07T12:39:20.767Z,100309.09
2022-09-07T12:44:41.901Z,100306.72
2022-09-07T12:47:36.618Z,100302.25
2022-09-07T12:50:24.493Z,100298.53
2022-09-07T12:53:25.590Z,100291.13
2022-09-07T12:56:27.525Z,100276.72
2022-09-07T12:59:34.590Z,100284.38
2022-09-07T13:02:30.541Z,100290.31
2022-09-07T13:05:19.500Z,100280.97
2022-09-07T13:08:14.401Z,100281.78
2022-09-07T13:10:43.659Z,100281.09
2022-09-07T13:17:16.057Z,100274.38
2022-09-07T13:20:16.926Z,100276.13
2022-09-07T13:23:29.775Z,100271.59
2022-09-07T13:26:00.306Z,100272.84
2022-09-07T13:28:55.841Z,100264.66
2022-09-07T13:31:48.470Z,100276.19
2022-09-07T13:34:48.537Z,100275.91
2022-09-07T13:37:21.902Z,100265.41
2022-09-07T13:39:54.821Z,100265.00
2022-09-07T13:42:28.355Z,100265.94
2022-09-07T13:45:00.444Z,100261.91
2022-09-07T13:47:51.915Z,100255.94
2022-09-07T13:50:35.922Z,100241.38
2022-09-07T13:53:32.658Z,100244.06
2022-09-07T13:56:18.894Z,100243.50
2022-09-07T13:58:49.775Z,100247.03
2022-09-07T14:01:23.185Z,100248.47
2022-09-07T14:03:55.107Z,100248.53
2022-09-07T14:06:35.398Z,100255.88
2022-09-07T14:09:13.401Z,100240.78
2022-09-07T14:11:44.651Z,100240.84
2022-09-07T14:14:18.856Z,100231.50
2022-09-07T14:16:54.787Z,100234.75
2022-09-07T14:19:26.061Z,100229.16
2022-09-07T14:22:00.504Z,100235.31
2022-09-07T14:24:38.037Z,100234.81
2022-09-07T14:27:19.863Z,100229.25
2022-09-07T14:29:48.318Z,100231.63
2022-09-07T14:32:22.650Z,100225.81
2022-09-07T14:34:52.130Z,100224.50
2022-09-07T14:37:23.323Z,100217.19
2022-09-07T14:39:52.849Z,100217.91
2022-09-07T14:42:24.590Z,100222.72
2022-09-07T14:45:18.348Z,100222.56
2022-09-07T14:47:52.290Z,100217.22
2022-09-07T14:50:24.492Z,100216.63
2022-09-07T14:55:46.473Z,100223.19
2022-09-07T14:58:24.589Z,100230.34
2022-09-07T15:03:59.270Z,100217.13
2022-09-07T15:09:35.209Z,100213.94
2022-09-07T15:12:17.623Z,100213.63
2022-09-07T15:14:47.834Z,100209.88
2022-09-07T15:20:47.017Z,100210.03
2022-09-07T15:23:19.523Z,100215.66
2022-09-07T15:25:53.717Z,100218.25
2022-09-07T15:34:13.056Z,100207.88
2022-09-07T15:36:46.177Z,100210.03
2022-09-07T15:39:21.256Z,100207.09
2022-09-07T15:41:51.457Z,100201.50
2022-09-07T15:44:24.419Z,100205.59
2022-09-07T15:49:50.389Z,100207.91
2022-09-07T15:52:20.643Z,100206.84
2022-09-07T15:54:48.461Z,100210.44
2022-09-07T16:00:06.856Z,100203.84
2022-09-07T16:05:30.910Z,100201.91
2022-09-07T16:11:05.231Z,100192.22
2022-09-07T16:13:34.290Z,100193.44
2022-09-07T16:16:06.008Z,100185.38
2022-09-07T16:18:34.968Z,100187.44
2022-09-07T16:21:11.894Z,100191.91
2022-09-07T16:23:44.454Z,100182.81
2022-09-07T16:26:13.609Z,100179.38
2022-09-07T16:28:44.766Z,100176.69
2022-09-07T16:31:16.593Z,100180.13
2022-09-07T16:33:44.802Z,100172.13
2022-09-07T16:36:17.694Z,100168.69
2022-09-07T16:38:49.678Z,100168.53
2022-09-07T16:41:20.464Z,100168.69
2022-09-07T16:43:49.415Z,100166.81
2022-09-07T16:46:20.532Z,100168.53
2022-09-07T16:48:51.546Z,100164.91
2022-09-07T16:51:22.581Z,100165.53
2022-09-07T16:53:55.107Z,100159.66
2022-09-07T16:56:27.051Z,100159.97
2022-09-07T16:58:57.634Z,100157.69
2022-09-07T17:01:28.380Z,100148.91
2022-09-07T17:03:56.763Z,100158.09
2022-09-07T17:06:27.685Z,100151.88
2022-09-07T17:08:59.499Z,100156.19
2022-09-07T17:11:32.439Z,100161.91
2022-09-07T17:14:01.352Z,100166.03
2022-09-07T17:16:32.291Z,100161.66
2022-09-07T17:21:53.003Z,100151.47
2022-09-07T17:24:22.425Z,100149.78
2022-09-07T17:26:50.270Z,100148.06
2022-09-07T17:29:18.283Z,100149.66
2022-09-07T17:34:39.923Z,100141.81
2022-09-07T17:37:08.332Z,100153.78
2022-09-07T17:39:38.870Z,100145.53
2022-09-07T17:42:07.507Z,100150.13
2022-09-07T17:44:37.972Z,100153.75
2022-09-07T17:47:10.702Z,100157.13
2022-09-07T17:49:40.009Z,100149.84
2022-09-07T17:52:07.893Z,100151.28
2022-09-07T17:54:35.757Z,100152.03
2022-09-07T17:57:05.748Z,100158.72
2022-09-07T18:02:21.970Z,100160.69
2022-09-07T18:04:50.218Z,100157.63
2022-09-07T18:07:18.277Z,100154.50
2022-09-07T18:09:48.089Z,100159.44
2022-09-07T18:12:17.326Z,100165.97
2022-09-07T18:14:45.172Z,100164.38
2022-09-07T18:17:13.291Z,100162.84
2022-09-07T18:19:42.669Z,100164.94
2022-09-07T18:22:11.062Z,100171.31
2022-09-07T18:24:40.342Z,100168.94
2022-09-07T18:27:09.833Z,100178.09
2022-09-07T18:29:39.196Z,100178.28
2022-09-07T18:32:09.874Z,100176.66
2022-09-07T18:34:41.152Z,100175.91
2022-09-07T18:37:12.137Z,100173.41
2022-09-07T18:39:41.390Z,100169.16
2022-09-07T18:42:09.900Z,100172.88
2022-09-07T18:47:29.322Z,100173.25
2022-09-07T18:49:58.606Z,100164.63
2022-09-07T18:55:18.370Z,100169.25
2022-09-07T18:57:48.520Z,100162.31
2022-09-07T19:00:18.151Z,100162.59
2022-09-07T19:02:51.174Z,100175.28
2022-09-07T19:08:08.494Z,100172.00
2022-09-07T19:10:38.312Z,100165.97
2022-09-07T19:13:06.520Z,100160.91
2022-09-07T19:15:38.086Z,100166.41
2022-09-07T19:18:09.481Z,100154.47
2022-09-07T19:20:37.671Z,100156.31
2022-09-07T19:23:07.071Z,100158.09
2022-09-07T19:25:42.928Z,100161.75
2022-09-07T19:28:11.175Z,100154.97
2022-09-07T19:30:40.506Z,100164.94
2022-09-07T19:33:12.064Z,100154.56
2022-09-07T19:35:39.947Z,100161.72
2022-09-07T19:38:08.214Z,100144.94
2022-09-07T19:40:37.292Z,100139.78
2022-09-07T19:43:06.576Z,100142.31
2022-09-07T19:45:39.262Z,100145.81
2022-09-07T19:48:09.197Z,100154.59
2022-09-07T19:50:37.207Z,100145.97
2022-09-07T19:53:05.693Z,100147.78
2022-09-07T19:55:35.994Z,100144.22
2022-09-07T19:58:04.033Z,100140.69
2022-09-07T20:00:40.095Z,100137.31
2022-09-07T20:03:10.837Z,100127.63
2022-09-07T20:05:41.190Z,100138.28
2022-09-07T20:08:09.466Z,100131.56
2022-09-07T20:10:37.664Z,100137.78
2022-09-07T20:13:08.118Z,100132.50
2022-09-07T20:15:42.511Z,100125.59
2022-09-07T20:18:12.293Z,100133.44
2022-09-07T20:20:45.481Z,100128.34
2022-09-07T20:23:15.126Z,100131.06
2022-09-07T20:25:43.973Z,100128.56
2022-09-07T20:28:13.950Z,100133.81
2022-09-07T20:30:43.685Z,100126.84
2022-09-07T20:33:13.047Z,100125.84
2022-09-07T20:35:44.691Z,100119.03
2022-09-07T20:38:12.528Z,100112.84
2022-09-07T20:40:51.079Z,100113.78
2022-09-07T20:43:19.190Z,100118.25
2022-09-07T20:45:47.812Z,100106.97
2022-09-07T20:48:17.107Z,100106.88
2022-09-07T20:50:55.260Z,100113.00
2022-09-07T20:53:24.001Z,100115.63
2022-09-07T20:55:59.284Z,100113.88
2022-09-07T20:58:27.045Z,100110.34
2022-09-07T21:00:55.062Z,100109.53
2022-09-07T21:03:25.972Z,100109.53
2022-09-07T21:05:54.831Z,100106.88
2022-09-07T21:08:23.195Z,100110.44
2022-09-07T21:10:51.454Z,100109.53
2022-09-07T21:13:19.759Z,100116.66
2022-09-07T21:15:47.616Z,100112.34
2022-09-07T21:18:18.825Z,100114.97
2022-09-07T21:21:18.929Z,100114.28
2022-09-07T21:23:49.069Z,100121.41
2022-09-07T21:26:21.183Z,100103.16
2022-09-07T21:28:55.762Z,100103.06
2022-09-07T21:31:26.518Z,100110.19
2022-09-07T21:33:56.342Z,100105.88
2022-09-07T21:36:26.835Z,100106.81
2022-09-07T21:38:55.836Z,100102.56
2022-09-07T21:41:25.650Z,100104.38
2022-09-07T21:43:56.925Z,100102.63
2022-09-07T21:46:26.510Z,100107.13
2022-09-07T21:48:56.965Z,100104.63
2022-09-07T21:51:28.776Z,100111.84
2022-09-07T21:54:00.272Z,100098.78
2022-09-07T21:56:31.090Z,100097.88
2022-09-07T21:59:02.154Z,100091.03
2022-09-07T22:01:32.189Z,100094.63
2022-09-07T22:04:03.451Z,100103.50
2022-09-07T22:06:33.940Z,100099.09
2022-09-07T22:09:03.946Z,100098.31
2022-09-07T22:11:32.465Z,100095.69
2022-09-07T22:14:04.325Z,100089.56
2022-09-07T22:16:34.281Z,100101.06
2022-09-07T22:19:02.793Z,100091.41
2022-09-07T22:21:33.996Z,100089.69
2022-09-07T22:24:05.955Z,100096.88
2022-09-07T22:26:42.371Z,100082.81
2022-09-07T22:29:12.979Z,100079.19
2022-09-07T22:31:44.641Z,100067.00
2022-09-07T22:34:12.650Z,100075.03
2022-09-07T22:36:44.321Z,100080.31
2022-09-07T22:39:15.326Z,100071.63
2022-09-07T22:41:45.249Z,100065.47
2022-09-07T22:44:17.826Z,100067.38
2022-09-07T22:46:48.085Z,100073.78
2022-09-07T22:49:17.292Z,100069.44
2022-09-07T22:51:48.053Z,100063.41
2022-09-07T22:54:16.240Z,100063.41
2022-09-07T22:56:44.172Z,100060.63
2022-09-07T22:59:14.090Z,100058.00
2022-09-07T23:01:42.503Z,100053.59
2022-09-07T23:04:11.701Z,100043.06
2022-09-07T23:06:43.147Z,100052.59
2022-09-07T23:09:16.143Z,100053.59
2022-09-07T23:11:45.512Z,100044.78
2022-09-07T23:14:15.892Z,100030.56
2022-09-07T23:16:45.090Z,100025.13
2022-09-07T23:19:15.043Z,100018.13
2022-09-07T23:21:44.130Z,100014.69
2022-09-07T23:24:15.870Z,100016.41
2022-09-07T23:26:46.632Z,100016.41
2022-09-07T23:29:16.216Z,100023.53
2022-09-07T23:31:46.962Z,100034.31
2022-09-07T23:34:15.119Z,100027.31
2022-09-07T23:36:43.049Z,100032.81
2022-09-07T23:39:11.219Z,100029.56
2022-09-07T23:41:41.158Z,100030.44
2022-09-07T23:44:09.326Z,100029.66
2022-09-07T23:46:37.727Z,100030.56
2022-09-07T23:49:05.709Z,100019.91
2022-09-07T23:51:33.730Z,100024.13
2022-09-07T23:54:01.773Z,100010.13
2022-09-07T23:56:32.645Z,100010.19
2022-09-07T23:59:01.908Z,99993.69
